sensor_id;sensor_type;location;lat;lon;timestamp;P1;durP1;ratioP1;P2;durP2;ratioP2
38805;SDS011;25635;51.146;17.162;2023-07-28T00:02:20;4.20;;;1.20;;
38805;SDS011;25635;51.146;17.162;2023-07-28T00:04:46;6.50;;;1.50;;
38805;SDS011;25635;51.146;17.162;2023-07-28T00:07:12;4.80;;;1.60;;
38805;SDS011;25635;51.146;17.162;2023-07-28T00:09:38;4.40;;;1.60;;
38805;SDS011;25635;51.146;17.162;2023-07-28T00:12:03;3.40;;;1.40;;
38805;SDS011;25635;51.146;17.162;2023-07-28T00:14:30;5.30;;;1.40;;
38805;SDS011;25635;51.146;17.162;2023-07-28T00:16:56;3.30;;;1.30;;
38805;SDS011;25635;51.146;17.162;2023-07-28T00:19:23;3.50;;;1.40;;
38805;SDS011;25635;51.146;17.162;2023-07-28T00:21:49;3.90;;;1.20;;
38805;SDS011;25635;51.146;17.162;2023-07-28T00:24:16;3.90;;;1.20;;
38805;SDS011;25635;51.146;17.162;2023-07-28T00:26:43;3.60;;;1.40;;
38805;SDS011;25635;51.146;17.162;2023-07-28T00:29:09;5.20;;;1.50;;
38805;SDS011;25635;51.146;17.162;2023-07-28T00:31:35;3.70;;;1.20;;
38805;SDS011;25635;51.146;17.162;2023-07-28T00:34:02;4.90;;;1.30;;
38805;SDS011;25635;51.146;17.162;2023-07-28T00:36:29;2.60;;;1.00;;
38805;SDS011;25635;51.146;17.162;2023-07-28T00:38:55;3.80;;;1.10;;
38805;SDS011;25635;51.146;17.162;2023-07-28T00:41:21;4.50;;;1.50;;
38805;SDS011;25635;51.146;17.162;2023-07-28T00:43:47;3.20;;;1.30;;
38805;SDS011;25635;51.146;17.162;2023-07-28T00:46:14;3.30;;;1.20;;
38805;SDS011;25635;51.146;17.162;2023-07-28T00:48:41;5.40;;;1.40;;
38805;SDS011;25635;51.146;17.162;2023-07-28T00:51:07;3.70;;;1.40;;
38805;SDS011;25635;51.146;17.162;2023-07-28T00:53:33;3.80;;;1.10;;
38805;SDS011;25635;51.146;17.162;2023-07-28T00:56:00;3.70;;;1.50;;
38805;SDS011;25635;51.146;17.162;2023-07-28T00:58:27;5.20;;;1.60;;
38805;SDS011;25635;51.146;17.162;2023-07-28T01:00:53;4.70;;;1.40;;
38805;SDS011;25635;51.146;17.162;2023-07-28T01:03:19;4.80;;;1.30;;
38805;SDS011;25635;51.146;17.162;2023-07-28T01:08:25;3.30;;;1.30;;
38805;SDS011;25635;51.146;17.162;2023-07-28T01:10:55;3.60;;;1.30;;
38805;SDS011;25635;51.146;17.162;2023-07-28T01:13:21;3.90;;;1.20;;
38805;SDS011;25635;51.146;17.162;2023-07-28T01:15:47;3.60;;;1.20;;
38805;SDS011;25635;51.146;17.162;2023-07-28T01:18:13;4.00;;;1.30;;
38805;SDS011;25635;51.146;17.162;2023-07-28T01:20:41;4.00;;;1.40;;
38805;SDS011;25635;51.146;17.162;2023-07-28T01:23:20;3.20;;;1.30;;
38805;SDS011;25635;51.146;17.162;2023-07-28T01:26:08;5.00;;;1.60;;
38805;SDS011;25635;51.146;17.162;2023-07-28T01:28:36;3.70;;;1.40;;
38805;SDS011;25635;51.146;17.162;2023-07-28T01:31:05;3.70;;;1.40;;
38805;SDS011;25635;51.146;17.162;2023-07-28T01:33:32;3.60;;;1.30;;
38805;SDS011;25635;51.146;17.162;2023-07-28T01:35:59;4.20;;;1.80;;
38805;SDS011;25635;51.146;17.162;2023-07-28T01:38:28;3.50;;;1.50;;
38805;SDS011;25635;51.146;17.162;2023-07-28T01:40:54;3.80;;;1.60;;
38805;SDS011;25635;51.146;17.162;2023-07-28T01:43:20;3.80;;;1.60;;
38805;SDS011;25635;51.146;17.162;2023-07-28T01:45:46;4.40;;;1.20;;
38805;SDS011;25635;51.146;17.162;2023-07-28T01:48:12;4.00;;;1.80;;
38805;SDS011;25635;51.146;17.162;2023-07-28T01:50:38;4.90;;;1.60;;
38805;SDS011;25635;51.146;17.162;2023-07-28T01:53:05;3.60;;;1.60;;
38805;SDS011;25635;51.146;17.162;2023-07-28T01:55:31;6.10;;;1.70;;
38805;SDS011;25635;51.146;17.162;2023-07-28T01:57:58;4.40;;;1.50;;
38805;SDS011;25635;51.146;17.162;2023-07-28T02:00:25;5.20;;;1.80;;
38805;SDS011;25635;51.146;17.162;2023-07-28T02:02:51;5.60;;;1.80;;
38805;SDS011;25635;51.146;17.162;2023-07-28T02:05:18;3.00;;;1.60;;
38805;SDS011;25635;51.146;17.162;2023-07-28T02:07:45;5.80;;;2.10;;
38805;SDS011;25635;51.146;17.162;2023-07-28T02:10:12;6.10;;;2.40;;
38805;SDS011;25635;51.146;17.162;2023-07-28T02:12:39;5.70;;;1.80;;
38805;SDS011;25635;51.146;17.162;2023-07-28T02:15:05;4.90;;;1.90;;
38805;SDS011;25635;51.146;17.162;2023-07-28T02:17:32;8.80;;;2.00;;
38805;SDS011;25635;51.146;17.162;2023-07-28T02:19:58;4.40;;;1.80;;
38805;SDS011;25635;51.146;17.162;2023-07-28T02:22:24;4.40;;;1.90;;
38805;SDS011;25635;51.146;17.162;2023-07-28T02:24:50;3.80;;;1.80;;
38805;SDS011;25635;51.146;17.162;2023-07-28T02:27:16;5.70;;;2.00;;
38805;SDS011;25635;51.146;17.162;2023-07-28T02:29:42;5.30;;;2.10;;
38805;SDS011;25635;51.146;17.162;2023-07-28T02:32:08;5.40;;;2.00;;
38805;SDS011;25635;51.146;17.162;2023-07-28T02:34:34;4.30;;;1.90;;
38805;SDS011;25635;51.146;17.162;2023-07-28T02:37:00;3.90;;;1.70;;
38805;SDS011;25635;51.146;17.162;2023-07-28T02:39:26;3.50;;;1.70;;
38805;SDS011;25635;51.146;17.162;2023-07-28T02:41:53;5.10;;;1.70;;
38805;SDS011;25635;51.146;17.162;2023-07-28T02:44:19;3.80;;;1.50;;
38805;SDS011;25635;51.146;17.162;2023-07-28T02:46:45;4.40;;;1.80;;
38805;SDS011;25635;51.146;17.162;2023-07-28T02:49:11;4.50;;;1.80;;
38805;SDS011;25635;51.146;17.162;2023-07-28T02:51:36;4.70;;;2.00;;
38805;SDS011;25635;51.146;17.162;2023-07-28T02:54:03;4.90;;;1.80;;
38805;SDS011;25635;51.146;17.162;2023-07-28T02:56:41;5.10;;;2.20;;
38805;SDS011;25635;51.146;17.162;2023-07-28T02:59:07;4.30;;;1.90;;
38805;SDS011;25635;51.146;17.162;2023-07-28T03:01:36;4.20;;;1.90;;
38805;SDS011;25635;51.146;17.162;2023-07-28T03:04:10;5.30;;;2.00;;
38805;SDS011;25635;51.146;17.162;2023-07-28T03:06:36;5.00;;;1.60;;
38805;SDS011;25635;51.146;17.162;2023-07-28T03:09:02;5.20;;;2.30;;
38805;SDS011;25635;51.146;17.162;2023-07-28T03:11:28;5.40;;;2.00;;
38805;SDS011;25635;51.146;17.162;2023-07-28T03:13:54;4.90;;;2.00;;
38805;SDS011;25635;51.146;17.162;2023-07-28T03:16:20;4.80;;;2.50;;
38805;SDS011;25635;51.146;17.162;2023-07-28T03:18:46;3.90;;;1.90;;
38805;SDS011;25635;51.146;17.162;2023-07-28T03:21:12;5.80;;;2.00;;
38805;SDS011;25635;51.146;17.162;2023-07-28T03:23:38;5.30;;;2.00;;
38805;SDS011;25635;51.146;17.162;2023-07-28T03:26:04;4.50;;;1.80;;
38805;SDS011;25635;51.146;17.162;2023-07-28T03:28:30;4.80;;;2.00;;
38805;SDS011;25635;51.146;17.162;2023-07-28T03:30:55;5.30;;;2.00;;
38805;SDS011;25635;51.146;17.162;2023-07-28T03:33:21;5.20;;;2.20;;
38805;SDS011;25635;51.146;17.162;2023-07-28T03:35:47;3.80;;;2.00;;
38805;SDS011;25635;51.146;17.162;2023-07-28T03:38:13;4.00;;;2.10;;
38805;SDS011;25635;51.146;17.162;2023-07-28T03:40:39;4.50;;;2.20;;
38805;SDS011;25635;51.146;17.162;2023-07-28T03:43:05;4.90;;;2.10;;
38805;SDS011;25635;51.146;17.162;2023-07-28T03:45:31;5.10;;;2.00;;
38805;SDS011;25635;51.146;17.162;2023-07-28T03:47:57;5.70;;;2.20;;
38805;SDS011;25635;51.146;17.162;2023-07-28T03:50:23;5.70;;;2.00;;
38805;SDS011;25635;51.146;17.162;2023-07-28T03:52:52;6.50;;;2.30;;
38805;SDS011;25635;51.146;17.162;2023-07-28T03:55:18;3.70;;;2.00;;
38805;SDS011;25635;51.146;17.162;2023-07-28T03:57:44;4.50;;;2.20;;
38805;SDS011;25635;51.146;17.162;2023-07-28T04:00:10;5.20;;;2.30;;
38805;SDS011;25635;51.146;17.162;2023-07-28T04:02:37;3.90;;;2.20;;
38805;SDS011;25635;51.146;17.162;2023-07-28T04:05:03;4.30;;;2.00;;
38805;SDS011;25635;51.146;17.162;2023-07-28T04:07:29;4.80;;;2.10;;
38805;SDS011;25635;51.146;17.162;2023-07-28T04:09:55;5.10;;;2.10;;
38805;SDS011;25635;51.146;17.162;2023-07-28T04:12:21;5.30;;;2.20;;
38805;SDS011;25635;51.146;17.162;2023-07-28T04:14:46;4.00;;;2.00;;
38805;SDS011;25635;51.146;17.162;2023-07-28T04:17:12;4.80;;;1.90;;
38805;SDS011;25635;51.146;17.162;2023-07-28T04:19:38;4.80;;;1.90;;
38805;SDS011;25635;51.146;17.162;2023-07-28T04:22:04;3.60;;;1.60;;
38805;SDS011;25635;51.146;17.162;2023-07-28T04:24:31;4.30;;;1.80;;
38805;SDS011;25635;51.146;17.162;2023-07-28T04:26:57;4.60;;;1.70;;
38805;SDS011;25635;51.146;17.162;2023-07-28T04:29:25;5.60;;;1.90;;
38805;SDS011;25635;51.146;17.162;2023-07-28T04:31:52;4.20;;;2.50;;
38805;SDS011;25635;51.146;17.162;2023-07-28T04:34:18;5.70;;;1.70;;
38805;SDS011;25635;51.146;17.162;2023-07-28T04:36:44;4.30;;;1.70;;
38805;SDS011;25635;51.146;17.162;2023-07-28T04:39:10;4.80;;;1.90;;
38805;SDS011;25635;51.146;17.162;2023-07-28T04:41:36;4.90;;;1.70;;
38805;SDS011;25635;51.146;17.162;2023-07-28T04:44:02;3.20;;;1.40;;
38805;SDS011;25635;51.146;17.162;2023-07-28T04:46:28;3.50;;;1.50;;
38805;SDS011;25635;51.146;17.162;2023-07-28T04:48:54;3.80;;;1.70;;
38805;SDS011;25635;51.146;17.162;2023-07-28T04:51:21;3.50;;;1.40;;
38805;SDS011;25635;51.146;17.162;2023-07-28T04:53:47;4.20;;;1.50;;
38805;SDS011;25635;51.146;17.162;2023-07-28T04:56:13;4.70;;;1.50;;
38805;SDS011;25635;51.146;17.162;2023-07-28T04:58:39;6.30;;;1.30;;
38805;SDS011;25635;51.146;17.162;2023-07-28T05:01:05;2.80;;;1.20;;
38805;SDS011;25635;51.146;17.162;2023-07-28T05:03:33;4.10;;;1.30;;
38805;SDS011;25635;51.146;17.162;2023-07-28T05:05:59;3.10;;;1.40;;
38805;SDS011;25635;51.146;17.162;2023-07-28T05:08:25;3.40;;;1.40;;
38805;SDS011;25635;51.146;17.162;2023-07-28T05:10:51;3.10;;;1.40;;
38805;SDS011;25635;51.146;17.162;2023-07-28T05:13:17;4.20;;;1.00;;
38805;SDS011;25635;51.146;17.162;2023-07-28T05:15:43;5.00;;;1.10;;
38805;SDS011;25635;51.146;17.162;2023-07-28T05:18:09;4.90;;;1.10;;
38805;SDS011;25635;51.146;17.162;2023-07-28T05:20:35;3.00;;;1.20;;
38805;SDS011;25635;51.146;17.162;2023-07-28T05:23:01;3.20;;;1.20;;
38805;SDS011;25635;51.146;17.162;2023-07-28T05:25:27;3.10;;;1.20;;
38805;SDS011;25635;51.146;17.162;2023-07-28T05:27:53;5.50;;;1.00;;
38805;SDS011;25635;51.146;17.162;2023-07-28T05:30:19;2.30;;;0.90;;
38805;SDS011;25635;51.146;17.162;2023-07-28T05:32:46;4.00;;;1.40;;
38805;SDS011;25635;51.146;17.162;2023-07-28T05:35:14;3.30;;;1.20;;
38805;SDS011;25635;51.146;17.162;2023-07-28T05:37:41;4.10;;;1.20;;
38805;SDS011;25635;51.146;17.162;2023-07-28T05:40:07;4.50;;;1.50;;
38805;SDS011;25635;51.146;17.162;2023-07-28T05:42:33;4.80;;;2.20;;
38805;SDS011;25635;51.146;17.162;2023-07-28T05:45:00;3.90;;;1.80;;
38805;SDS011;25635;51.146;17.162;2023-07-28T05:47:25;3.80;;;1.20;;
38805;SDS011;25635;51.146;17.162;2023-07-28T05:49:52;3.10;;;1.20;;
38805;SDS011;25635;51.146;17.162;2023-07-28T05:52:20;3.10;;;1.20;;
38805;SDS011;25635;51.146;17.162;2023-07-28T05:54:48;6.10;;;1.40;;
38805;SDS011;25635;51.146;17.162;2023-07-28T05:57:13;4.10;;;1.10;;
38805;SDS011;25635;51.146;17.162;2023-07-28T05:59:39;2.40;;;0.90;;
38805;SDS011;25635;51.146;17.162;2023-07-28T06:02:05;2.60;;;1.10;;
38805;SDS011;25635;51.146;17.162;2023-07-28T06:04:31;2.50;;;0.90;;
38805;SDS011;25635;51.146;17.162;2023-07-28T06:06:57;2.70;;;0.90;;
38805;SDS011;25635;51.146;17.162;2023-07-28T06:09:23;2.90;;;1.10;;
38805;SDS011;25635;51.146;17.162;2023-07-28T06:11:49;2.60;;;0.90;;
38805;SDS011;25635;51.146;17.162;2023-07-28T06:14:15;3.00;;;1.30;;
38805;SDS011;25635;51.146;17.162;2023-07-28T06:16:41;3.10;;;1.00;;
38805;SDS011;25635;51.146;17.162;2023-07-28T06:19:07;3.50;;;1.10;;
38805;SDS011;25635;51.146;17.162;2023-07-28T06:21:34;2.90;;;0.90;;
38805;SDS011;25635;51.146;17.162;2023-07-28T06:24:00;3.10;;;1.10;;
38805;SDS011;25635;51.146;17.162;2023-07-28T06:26:26;4.50;;;1.00;;
38805;SDS011;25635;51.146;17.162;2023-07-28T06:28:52;2.20;;;0.70;;
38805;SDS011;25635;51.146;17.162;2023-07-28T06:31:18;2.90;;;1.00;;
38805;SDS011;25635;51.146;17.162;2023-07-28T06:33:44;2.70;;;1.00;;
38805;SDS011;25635;51.146;17.162;2023-07-28T06:36:10;2.20;;;1.00;;
38805;SDS011;25635;51.146;17.162;2023-07-28T06:38:36;2.90;;;1.00;;
38805;SDS011;25635;51.146;17.162;2023-07-28T06:41:02;3.40;;;1.00;;
38805;SDS011;25635;51.146;17.162;2023-07-28T06:43:28;3.30;;;1.10;;
38805;SDS011;25635;51.146;17.162;2023-07-28T06:45:54;2.50;;;0.90;;
38805;SDS011;25635;51.146;17.162;2023-07-28T06:48:20;2.40;;;1.00;;
38805;SDS011;25635;51.146;17.162;2023-07-28T06:50:46;2.90;;;1.10;;
38805;SDS011;25635;51.146;17.162;2023-07-28T06:53:12;2.90;;;1.00;;
38805;SDS011;25635;51.146;17.162;2023-07-28T06:55:38;2.90;;;0.90;;
38805;SDS011;25635;51.146;17.162;2023-07-28T06:58:05;2.80;;;0.80;;
38805;SDS011;25635;51.146;17.162;2023-07-28T07:00:35;3.90;;;1.10;;
38805;SDS011;25635;51.146;17.162;2023-07-28T07:03:01;3.20;;;0.80;;
38805;SDS011;25635;51.146;17.162;2023-07-28T07:05:27;2.00;;;0.70;;
38805;SDS011;25635;51.146;17.162;2023-07-28T07:07:53;2.10;;;0.80;;
38805;SDS011;25635;51.146;17.162;2023-07-28T07:10:20;1.90;;;0.80;;
38805;SDS011;25635;51.146;17.162;2023-07-28T07:12:47;2.00;;;0.70;;
38805;SDS011;25635;51.146;17.162;2023-07-28T07:15:13;2.60;;;0.80;;
38805;SDS011;25635;51.146;17.162;2023-07-28T07:17:39;2.40;;;0.90;;
38805;SDS011;25635;51.146;17.162;2023-07-28T07:20:05;2.80;;;0.90;;
38805;SDS011;25635;51.146;17.162;2023-07-28T07:22:32;3.40;;;0.90;;
38805;SDS011;25635;51.146;17.162;2023-07-28T07:24:58;1.90;;;0.70;;
38805;SDS011;25635;51.146;17.162;2023-07-28T07:27:24;2.20;;;0.70;;
38805;SDS011;25635;51.146;17.162;2023-07-28T07:29:50;2.40;;;0.60;;
38805;SDS011;25635;51.146;17.162;2023-07-28T07:32:17;1.80;;;0.60;;
38805;SDS011;25635;51.146;17.162;2023-07-28T07:34:43;1.90;;;0.60;;
38805;SDS011;25635;51.146;17.162;2023-07-28T07:37:09;1.80;;;0.50;;
38805;SDS011;25635;51.146;17.162;2023-07-28T07:39:35;2.40;;;0.50;;
38805;SDS011;25635;51.146;17.162;2023-07-28T07:42:02;1.50;;;0.40;;
38805;SDS011;25635;51.146;17.162;2023-07-28T07:44:28;1.40;;;0.40;;
38805;SDS011;25635;51.146;17.162;2023-07-28T07:46:54;1.90;;;0.60;;
38805;SDS011;25635;51.146;17.162;2023-07-28T07:49:22;2.40;;;0.50;;
38805;SDS011;25635;51.146;17.162;2023-07-28T07:51:48;1.60;;;0.40;;
38805;SDS011;25635;51.146;17.162;2023-07-28T07:54:14;2.10;;;0.50;;
38805;SDS011;25635;51.146;17.162;2023-07-28T07:56:44;2.30;;;0.70;;
38805;SDS011;25635;51.146;17.162;2023-07-28T07:59:12;1.50;;;0.40;;
38805;SDS011;25635;51.146;17.162;2023-07-28T08:01:38;1.40;;;0.40;;
38805;SDS011;25635;51.146;17.162;2023-07-28T08:04:04;0.80;;;0.20;;
38805;SDS011;25635;51.146;17.162;2023-07-28T08:06:30;2.10;;;0.40;;
38805;SDS011;25635;51.146;17.162;2023-07-28T08:08:56;1.90;;;0.40;;
38805;SDS011;25635;51.146;17.162;2023-07-28T08:11:25;1.50;;;0.40;;
38805;SDS011;25635;51.146;17.162;2023-07-28T08:13:51;2.20;;;0.50;;
38805;SDS011;25635;51.146;17.162;2023-07-28T08:16:17;2.60;;;0.50;;
38805;SDS011;25635;51.146;17.162;2023-07-28T08:18:45;1.20;;;0.30;;
38805;SDS011;25635;51.146;17.162;2023-07-28T08:21:12;2.50;;;0.40;;
38805;SDS011;25635;51.146;17.162;2023-07-28T08:23:38;1.80;;;0.30;;
38805;SDS011;25635;51.146;17.162;2023-07-28T08:26:04;1.20;;;0.40;;
38805;SDS011;25635;51.146;17.162;2023-07-28T08:28:30;2.40;;;0.30;;
38805;SDS011;25635;51.146;17.162;2023-07-28T08:31:00;3.30;;;0.50;;
38805;SDS011;25635;51.146;17.162;2023-07-28T08:33:27;1.50;;;0.30;;
38805;SDS011;25635;51.146;17.162;2023-07-28T08:35:53;1.90;;;0.30;;
38805;SDS011;25635;51.146;17.162;2023-07-28T08:38:19;2.00;;;0.30;;
38805;SDS011;25635;51.146;17.162;2023-07-28T08:40:45;3.00;;;0.40;;
38805;SDS011;25635;51.146;17.162;2023-07-28T08:43:11;1.60;;;0.30;;
38805;SDS011;25635;51.146;17.162;2023-07-28T08:45:38;1.20;;;0.30;;
38805;SDS011;25635;51.146;17.162;2023-07-28T08:48:05;1.60;;;0.40;;
38805;SDS011;25635;51.146;17.162;2023-07-28T08:50:31;2.50;;;0.50;;
38805;SDS011;25635;51.146;17.162;2023-07-28T08:52:57;2.70;;;0.50;;
38805;SDS011;25635;51.146;17.162;2023-07-28T08:55:23;2.60;;;0.50;;
38805;SDS011;25635;51.146;17.162;2023-07-28T08:57:49;2.30;;;0.70;;
38805;SDS011;25635;51.146;17.162;2023-07-28T09:00:15;2.40;;;0.50;;
38805;SDS011;25635;51.146;17.162;2023-07-28T09:02:43;2.10;;;0.40;;
38805;SDS011;25635;51.146;17.162;2023-07-28T09:05:17;2.70;;;0.50;;
38805;SDS011;25635;51.146;17.162;2023-07-28T09:10:12;2.20;;;0.80;;
38805;SDS011;25635;51.146;17.162;2023-07-28T09:12:44;2.10;;;0.40;;
38805;SDS011;25635;51.146;17.162;2023-07-28T09:15:13;2.20;;;0.40;;
38805;SDS011;25635;51.146;17.162;2023-07-28T09:17:44;1.60;;;0.50;;
38805;SDS011;25635;51.146;17.162;2023-07-28T09:20:14;1.70;;;0.50;;
38805;SDS011;25635;51.146;17.162;2023-07-28T09:22:42;1.70;;;0.50;;
38805;SDS011;25635;51.146;17.162;2023-07-28T09:25:15;2.20;;;0.70;;
38805;SDS011;25635;51.146;17.162;2023-07-28T09:27:51;2.60;;;0.70;;
38805;SDS011;25635;51.146;17.162;2023-07-28T09:30:18;1.60;;;0.50;;
38805;SDS011;25635;51.146;17.162;2023-07-28T09:32:49;1.90;;;0.40;;
38805;SDS011;25635;51.146;17.162;2023-07-28T09:35:16;1.80;;;0.40;;
38805;SDS011;25635;51.146;17.162;2023-07-28T09:37:44;1.40;;;0.40;;
38805;SDS011;25635;51.146;17.162;2023-07-28T09:40:13;1.20;;;0.40;;
38805;SDS011;25635;51.146;17.162;2023-07-28T09:42:43;1.80;;;0.60;;
38805;SDS011;25635;51.146;17.162;2023-07-28T09:45:20;1.30;;;0.40;;
38805;SDS011;25635;51.146;17.162;2023-07-28T09:47:47;3.80;;;0.40;;
38805;SDS011;25635;51.146;17.162;2023-07-28T09:50:20;2.40;;;0.60;;
38805;SDS011;25635;51.146;17.162;2023-07-28T09:52:49;3.80;;;0.50;;
38805;SDS011;25635;51.146;17.162;2023-07-28T09:55:20;2.80;;;0.50;;
38805;SDS011;25635;51.146;17.162;2023-07-28T09:57:50;2.00;;;0.60;;
38805;SDS011;25635;51.146;17.162;2023-07-28T10:00:18;1.50;;;0.50;;
38805;SDS011;25635;51.146;17.162;2023-07-28T10:02:46;1.50;;;0.50;;
38805;SDS011;25635;51.146;17.162;2023-07-28T10:05:13;1.80;;;0.60;;
38805;SDS011;25635;51.146;17.162;2023-07-28T10:07:42;1.80;;;0.50;;
38805;SDS011;25635;51.146;17.162;2023-07-28T10:10:10;2.10;;;0.70;;
38805;SDS011;25635;51.146;17.162;2023-07-28T10:15:13;1.40;;;0.50;;
38805;SDS011;25635;51.146;17.162;2023-07-28T10:17:53;2.00;;;0.60;;
38805;SDS011;25635;51.146;17.162;2023-07-28T10:20:32;1.80;;;0.50;;
38805;SDS011;25635;51.146;17.162;2023-07-28T10:25:34;1.60;;;0.60;;
38805;SDS011;25635;51.146;17.162;2023-07-28T10:28:02;2.20;;;0.80;;
38805;SDS011;25635;51.146;17.162;2023-07-28T10:30:34;2.10;;;0.70;;
38805;SDS011;25635;51.146;17.162;2023-07-28T10:33:02;2.30;;;0.70;;
38805;SDS011;25635;51.146;17.162;2023-07-28T10:35:28;2.00;;;0.60;;
38805;SDS011;25635;51.146;17.162;2023-07-28T10:37:57;3.10;;;0.90;;
38805;SDS011;25635;51.146;17.162;2023-07-28T10:40:26;4.20;;;1.00;;
38805;SDS011;25635;51.146;17.162;2023-07-28T10:42:54;2.00;;;0.70;;
38805;SDS011;25635;51.146;17.162;2023-07-28T10:45:31;2.30;;;0.70;;
38805;SDS011;25635;51.146;17.162;2023-07-28T10:47:58;3.70;;;0.70;;
38805;SDS011;25635;51.146;17.162;2023-07-28T10:50:27;2.20;;;0.70;;
38805;SDS011;25635;51.146;17.162;2023-07-28T10:52:54;1.50;;;0.50;;
38805;SDS011;25635;51.146;17.162;2023-07-28T10:55:22;1.70;;;0.40;;
38805;SDS011;25635;51.146;17.162;2023-07-28T10:57:50;3.00;;;0.60;;
38805;SDS011;25635;51.146;17.162;2023-07-28T11:00:18;1.30;;;0.50;;
38805;SDS011;25635;51.146;17.162;2023-07-28T11:02:46;3.30;;;0.50;;
38805;SDS011;25635;51.146;17.162;2023-07-28T11:05:29;2.30;;;0.60;;
38805;SDS011;25635;51.146;17.162;2023-07-28T11:08:00;2.40;;;0.50;;
38805;SDS011;25635;51.146;17.162;2023-07-28T11:10:28;2.30;;;0.50;;
38805;SDS011;25635;51.146;17.162;2023-07-28T11:12:56;2.70;;;0.50;;
38805;SDS011;25635;51.146;17.162;2023-07-28T11:15:31;2.50;;;0.50;;
38805;SDS011;25635;51.146;17.162;2023-07-28T11:28:19;2.20;;;0.50;;
38805;SDS011;25635;51.146;17.162;2023-07-28T11:42:10;1.50;;;0.50;;
38805;SDS011;25635;51.146;17.162;2023-07-28T11:48:46;1.40;;;0.40;;
38805;SDS011;25635;51.146;17.162;2023-07-28T11:51:12;1.30;;;0.30;;
38805;SDS011;25635;51.146;17.162;2023-07-28T11:53:39;2.10;;;0.50;;
38805;SDS011;25635;51.146;17.162;2023-07-28T11:56:06;1.90;;;0.50;;
38805;SDS011;25635;51.146;17.162;2023-07-28T11:58:32;2.20;;;0.50;;
38805;SDS011;25635;51.146;17.162;2023-07-28T12:00:58;2.90;;;0.50;;
38805;SDS011;25635;51.146;17.162;2023-07-28T12:03:29;2.50;;;0.60;;
38805;SDS011;25635;51.146;17.162;2023-07-28T12:06:05;1.40;;;0.50;;
38805;SDS011;25635;51.146;17.162;2023-07-28T12:08:38;1.50;;;0.50;;
38805;SDS011;25635;51.146;17.162;2023-07-28T12:11:05;1.50;;;0.40;;
38805;SDS011;25635;51.146;17.162;2023-07-28T12:13:32;1.90;;;0.60;;
38805;SDS011;25635;51.146;17.162;2023-07-28T12:15:58;2.50;;;0.40;;
38805;SDS011;25635;51.146;17.162;2023-07-28T12:18:27;3.90;;;0.70;;
38805;SDS011;25635;51.146;17.162;2023-07-28T12:20:55;5.10;;;0.60;;
38805;SDS011;25635;51.146;17.162;2023-07-28T12:23:23;2.50;;;0.60;;
38805;SDS011;25635;51.146;17.162;2023-07-28T12:25:49;1.90;;;0.50;;
38805;SDS011;25635;51.146;17.162;2023-07-28T12:28:16;3.40;;;0.60;;
38805;SDS011;25635;51.146;17.162;2023-07-28T12:30:42;5.40;;;0.50;;
38805;SDS011;25635;51.146;17.162;2023-07-28T12:33:10;1.80;;;0.60;;
38805;SDS011;25635;51.146;17.162;2023-07-28T12:35:36;2.20;;;0.60;;
38805;SDS011;25635;51.146;17.162;2023-07-28T12:38:03;2.60;;;0.50;;
38805;SDS011;25635;51.146;17.162;2023-07-28T12:40:31;2.20;;;0.60;;
38805;SDS011;25635;51.146;17.162;2023-07-28T12:42:58;2.30;;;0.60;;
38805;SDS011;25635;51.146;17.162;2023-07-28T12:45:25;1.40;;;0.50;;
38805;SDS011;25635;51.146;17.162;2023-07-28T12:47:52;2.00;;;0.50;;
38805;SDS011;25635;51.146;17.162;2023-07-28T12:50:19;3.40;;;0.50;;
38805;SDS011;25635;51.146;17.162;2023-07-28T12:52:49;2.40;;;0.60;;
38805;SDS011;25635;51.146;17.162;2023-07-28T12:55:16;1.50;;;0.50;;
38805;SDS011;25635;51.146;17.162;2023-07-28T12:57:43;4.00;;;0.50;;
38805;SDS011;25635;51.146;17.162;2023-07-28T13:00:10;1.80;;;0.50;;
38805;SDS011;25635;51.146;17.162;2023-07-28T13:02:45;4.50;;;0.40;;
38805;SDS011;25635;51.146;17.162;2023-07-28T13:05:13;2.70;;;0.60;;
38805;SDS011;25635;51.146;17.162;2023-07-28T13:07:39;1.70;;;0.40;;
38805;SDS011;25635;51.146;17.162;2023-07-28T13:10:07;2.60;;;0.30;;
38805;SDS011;25635;51.146;17.162;2023-07-28T13:12:37;2.80;;;0.40;;
38805;SDS011;25635;51.146;17.162;2023-07-28T13:15:04;1.30;;;0.40;;
38805;SDS011;25635;51.146;17.162;2023-07-28T13:17:30;0.80;;;0.30;;
38805;SDS011;25635;51.146;17.162;2023-07-28T13:19:56;3.70;;;0.40;;
38805;SDS011;25635;51.146;17.162;2023-07-28T13:22:23;2.20;;;0.30;;
38805;SDS011;25635;51.146;17.162;2023-07-28T13:24:49;2.30;;;0.50;;
38805;SDS011;25635;51.146;17.162;2023-07-28T13:27:15;2.30;;;0.40;;
38805;SDS011;25635;51.146;17.162;2023-07-28T13:29:41;1.30;;;0.40;;
38805;SDS011;25635;51.146;17.162;2023-07-28T13:32:17;1.70;;;0.40;;
38805;SDS011;25635;51.146;17.162;2023-07-28T13:34:48;2.70;;;0.40;;
38805;SDS011;25635;51.146;17.162;2023-07-28T13:37:14;1.50;;;0.30;;
38805;SDS011;25635;51.146;17.162;2023-07-28T13:39:41;1.40;;;0.30;;
38805;SDS011;25635;51.146;17.162;2023-07-28T13:42:08;1.40;;;0.30;;
38805;SDS011;25635;51.146;17.162;2023-07-28T13:44:34;2.40;;;0.50;;
38805;SDS011;25635;51.146;17.162;2023-07-28T13:47:00;0.90;;;0.30;;
38805;SDS011;25635;51.146;17.162;2023-07-28T13:49:27;1.40;;;0.20;;
38805;SDS011;25635;51.146;17.162;2023-07-28T13:51:53;1.80;;;0.20;;
38805;SDS011;25635;51.146;17.162;2023-07-28T13:54:19;1.70;;;0.30;;
38805;SDS011;25635;51.146;17.162;2023-07-28T13:56:45;1.80;;;0.20;;
38805;SDS011;25635;51.146;17.162;2023-07-28T13:59:11;1.80;;;0.20;;
38805;SDS011;25635;51.146;17.162;2023-07-28T14:01:37;1.10;;;0.20;;
38805;SDS011;25635;51.146;17.162;2023-07-28T14:04:03;1.60;;;0.30;;
38805;SDS011;25635;51.146;17.162;2023-07-28T14:06:29;3.50;;;0.40;;
38805;SDS011;25635;51.146;17.162;2023-07-28T14:08:55;2.10;;;0.20;;
38805;SDS011;25635;51.146;17.162;2023-07-28T14:11:21;1.10;;;0.20;;
38805;SDS011;25635;51.146;17.162;2023-07-28T14:13:47;1.20;;;0.30;;
38805;SDS011;25635;51.146;17.162;2023-07-28T14:16:13;2.20;;;0.30;;
38805;SDS011;25635;51.146;17.162;2023-07-28T14:18:40;3.90;;;0.30;;
38805;SDS011;25635;51.146;17.162;2023-07-28T14:21:06;1.20;;;0.30;;
38805;SDS011;25635;51.146;17.162;2023-07-28T14:23:32;1.80;;;0.20;;
38805;SDS011;25635;51.146;17.162;2023-07-28T14:25:58;2.60;;;0.20;;
38805;SDS011;25635;51.146;17.162;2023-07-28T14:28:24;1.90;;;0.20;;
38805;SDS011;25635;51.146;17.162;2023-07-28T14:30:50;1.10;;;0.30;;
38805;SDS011;25635;51.146;17.162;2023-07-28T14:33:17;4.50;;;0.40;;
38805;SDS011;25635;51.146;17.162;2023-07-28T14:35:44;2.20;;;0.30;;
38805;SDS011;25635;51.146;17.162;2023-07-28T14:38:11;1.70;;;0.20;;
38805;SDS011;25635;51.146;17.162;2023-07-28T14:40:38;1.00;;;0.20;;
38805;SDS011;25635;51.146;17.162;2023-07-28T14:43:06;1.90;;;0.50;;
38805;SDS011;25635;51.146;17.162;2023-07-28T14:45:32;1.30;;;0.40;;
38805;SDS011;25635;51.146;17.162;2023-07-28T14:47:58;2.60;;;0.30;;
38805;SDS011;25635;51.146;17.162;2023-07-28T14:50:26;1.60;;;0.30;;
38805;SDS011;25635;51.146;17.162;2023-07-28T14:52:53;1.90;;;0.20;;
38805;SDS011;25635;51.146;17.162;2023-07-28T14:55:19;2.20;;;0.30;;
38805;SDS011;25635;51.146;17.162;2023-07-28T14:57:45;1.40;;;0.30;;
38805;SDS011;25635;51.146;17.162;2023-07-28T15:00:11;0.90;;;0.20;;
38805;SDS011;25635;51.146;17.162;2023-07-28T15:02:38;1.20;;;0.30;;
38805;SDS011;25635;51.146;17.162;2023-07-28T15:05:04;2.40;;;0.30;;
38805;SDS011;25635;51.146;17.162;2023-07-28T15:07:31;1.50;;;0.20;;
38805;SDS011;25635;51.146;17.162;2023-07-28T15:09:57;2.70;;;0.40;;